Time;durP1;ratioP1;P1;durP2;ratioP2;P2;SDS_P1;SDS_P2;PMS_P1;PMS_P2;Temp;Humidity;BMP_temperature;BMP_pressure;BME280_temperature;BME280_humidity;BME280_pressure;Samples;Min_cycle;Max_cycle;Signal;HPM_P1;HPM_P2
2023/01/06 00:02:30;;;;;;;;;0.00;0.00;;;;;13.24;65.97;101448.13;6339337;22;46493;-80
2023/01/06 00:05:01;;;;;;;;;0.25;0.25;;;;;13.17;66.21;101423.22;6311671;22;46293;-78
2023/01/06 00:07:30;;;;;;;;;1.00;0.00;;;;;13.36;66.35;101457.84;6337954;22;45468;-79
2023/01/06 00:13:17;;;;;;;;;1.00;0.00;;;;;13.16;66.69;101432.06;6335614;22;45936;-77
2023/01/06 00:15:42;;;;;;;;;0.00;0.00;;;;;13.30;66.36;101466.16;6306598;22;48284;-76
2023/01/06 00:18:08;;;;;;;;;0.00;0.00;;;;;12.75;66.19;101393.56;6335085;22;45550;-77
2023/01/06 00:20:33;;;;;;;;;0.00;0.00;;;;;12.78;66.18;101382.88;6307333;22;45488;-80
2023/01/06 00:26:21;;;;;;;;;0.00;0.00;;;;;13.27;66.34;101479.53;6335188;22;45451;-73
2023/01/06 00:28:47;;;;;;;;;0.00;0.00;;;;;13.27;66.47;101479.53;6334728;22;45431;-81
2023/01/06 00:31:16;;;;;;;;;0.00;0.00;;;;;13.21;66.09;101480.78;6336470;22;45727;-76
2023/01/06 00:33:42;;;;;;;;;0.00;0.00;;;;;13.28;66.41;101489.13;6250033;22;48715;-81
2023/01/06 00:36:14;;;;;;;;;0.75;0.00;;;;;13.26;66.70;101489.22;6303690;22;46007;-78
2023/01/06 00:42:07;;;;;;;;;0.00;0.00;;;;;13.23;66.97;101492.03;6303538;22;45467;-78
2023/01/06 00:44:35;;;;;;;;;0.00;0.00;;;;;13.14;67.03;101466.34;6274268;22;47779;-82
2023/01/06 00:47:13;;;;;;;;;0.00;0.00;;;;;13.22;66.43;101493.00;6273730;22;45527;-78
2023/01/06 00:49:38;;;;;;;;;0.00;0.00;;;;;13.22;67.02;101492.16;6303016;22;45618;-75
2023/01/06 00:52:05;;;;;;;;;0.00;0.00;;;;;13.03;67.16;101467.06;6302570;22;45527;-77
2023/01/06 00:57:52;;;;;;;;;0.00;0.00;;;;;13.21;67.02;101493.09;6306734;22;45945;-80
2023/01/06 01:00:18;;;;;;;;;0.00;0.00;;;;;13.14;66.81;101481.28;6278200;22;45550;-80
2023/01/06 01:02:46;;;;;;;;;1.00;0.00;;;;;13.18;66.72;101498.56;6276835;22;45508;-79
2023/01/06 01:05:12;;;;;;;;;0.00;0.00;;;;;13.16;67.20;101489.94;6302312;22;47350;-78
2023/01/06 01:07:39;;;;;;;;;0.00;0.00;;;;;13.13;67.30;101496.22;6302201;22;46231;-79
2023/01/06 01:13:26;;;;;;;;;0.00;0.00;;;;;13.07;67.86;101482.59;6303048;22;45644;-79
2023/01/06 01:15:54;;;;;;;;;0.00;0.00;;;;;13.13;67.87;101498.03;6302678;22;46418;-80
2023/01/06 01:18:22;;;;;;;;;0.00;0.00;;;;;13.12;67.44;101489.28;6303414;22;46555;-76
2023/01/06 01:20:47;;;;;;;;;0.00;0.00;;;;;13.13;67.85;101487.50;6302725;22;45435;-78
2023/01/06 01:23:13;;;;;;;;;0.00;0.00;;;;;13.13;67.75;101485.72;6275471;22;45464;-79
2023/01/06 01:29:01;;;;;;;;;0.00;0.00;;;;;13.07;67.79;101472.09;6303189;22;45749;-79
2023/01/06 01:31:26;;;;;;;;;0.50;0.00;;;;;13.10;68.15;101470.13;6303796;22;45557;-81
2023/01/06 01:33:55;;;;;;;;;0.00;0.00;;;;;13.12;67.85;101475.31;6302942;22;45682;-77
2023/01/06 01:36:20;;;;;;;;;0.00;0.00;;;;;13.11;68.04;101474.44;6274520;22;48919;-74
2023/01/06 01:38:46;;;;;;;;;0.00;0.00;;;;;13.10;68.06;101480.63;6303017;22;46020;-76
2023/01/06 01:44:51;;;;;;;;;0.00;0.00;;;;;13.08;68.44;101465.88;6304074;22;45643;-79
2023/01/06 01:47:20;;;;;;;;;0.00;0.00;;;;;13.04;68.56;101460.84;6304899;22;45597;-78
2023/01/06 01:49:51;;;;;;;;;0.00;0.00;;;;;13.00;68.40;101454.13;6277965;22;45618;-74
2023/01/06 01:52:25;;;;;;;;;0.00;0.00;;;;;13.02;68.73;101457.47;6307214;22;45628;-81
2023/01/06 01:55:01;;;;;;;;;0.00;0.00;;;;;13.00;68.89;101448.84;6306564;22;45777;-77
2023/01/06 01:57:33;;;;;;;;;0.00;0.00;;;;;13.02;68.39;101452.19;6275916;22;47285;-76
2023/01/06 02:00:01;;;;;;;;;0.00;0.00;;;;;12.73;68.61;101418.31;6303501;22;45985;-77
2023/01/06 02:02:30;;;;;;;;;0.00;0.00;;;;;13.01;68.43;101462.81;6302815;22;45569;-80
2023/01/06 02:04:56;;;;;;;;;0.00;0.00;;;;;13.00;68.51;101451.50;6303735;22;45696;-81
2023/01/06 02:07:24;;;;;;;;;1.00;0.00;;;;;13.00;68.68;101448.84;6302927;22;45636;-75
2023/01/06 02:09:56;;;;;;;;;0.00;0.00;;;;;12.99;68.51;101443.69;6302675;22;45523;-75
2023/01/06 02:12:21;;;;;;;;;0.00;0.00;;;;;12.92;68.36;101438.00;6302422;22;45728;-72
2023/01/06 02:14:47;;;;;;;;;0.00;0.00;;;;;12.95;68.25;101431.69;6302877;22;45369;-75
2023/01/06 02:17:40;;;;;;;;;0.00;0.00;;;;;12.96;68.46;101442.09;6303719;22;46295;-75
2023/01/06 02:20:28;;;;;;;;;0.00;0.00;;;;;12.99;68.67;101447.16;6209578;22;45978;-74
2023/01/06 02:23:10;;;;;;;;;0.00;0.00;;;;;12.99;68.27;101441.91;6181706;22;45596;-73
2023/01/06 02:25:47;;;;;;;;;0.00;0.00;;;;;12.98;68.48;101453.38;6208769;22;45783;-78
2023/01/06 02:28:43;;;;;;;;;0.00;0.00;;;;;12.98;68.73;101457.78;6207303;22;46768;-72
2023/01/06 02:31:33;;;;;;;;;1.00;0.00;;;;;12.99;68.68;101459.47;6206859;22;46027;-74
2023/01/06 02:34:15;;;;;;;;;0.00;0.00;;;;;12.99;68.65;101452.44;6207906;22;45734;-73
2023/01/06 02:37:05;;;;;;;;;0.00;0.00;;;;;12.99;68.63;101460.31;6208979;22;45559;-78
2023/01/06 02:39:39;;;;;;;;;0.00;0.00;;;;;12.99;68.61;101451.56;6208503;22;46574;-76
2023/01/06 02:42:49;;;;;;;;;0.00;0.00;;;;;12.97;68.67;101446.41;6207746;22;46410;-79
2023/01/06 02:45:30;;;;;;;;;1.00;0.00;;;;;12.97;68.66;101448.19;6086119;23;45626;-77
2023/01/06 02:48:21;;;;;;;;;0.00;0.00;;;;;12.98;69.08;101432.31;6087528;23;45701;-73
2023/01/06 02:50:55;;;;;;;;;0.00;0.00;;;;;12.98;69.19;101440.22;6085084;23;46647;-73
2023/01/06 02:53:32;;;;;;;;;0.00;0.00;;;;;12.98;68.89;101440.22;6087795;23;45886;-73
2023/01/06 02:59:26;;;;;;;;;1.00;0.00;;;;;12.90;68.81;101429.34;6147682;23;45522;-75
2023/01/06 03:01:54;;;;;;;;;0.00;0.00;;;;;12.94;68.94;101424.75;6147598;23;45842;-75
2023/01/06 03:04:28;;;;;;;;;1.25;1.00;;;;;12.86;68.84;101401.59;6147206;23;46355;-79
2023/01/06 03:06:57;;;;;;;;;1.00;0.00;;;;;12.87;68.91;101399.81;6148032;23;45603;-77
2023/01/06 03:09:28;;;;;;;;;0.00;0.00;;;;;12.76;69.00;101389.16;6122357;23;45604;-81
2023/01/06 03:15:15;;;;;;;;;0.00;0.00;;;;;12.87;69.27;101402.44;6147300;23;45800;-74
2023/01/06 03:17:40;;;;;;;;;1.00;1.00;;;;;12.87;69.32;101411.16;6147936;23;45983;-75
2023/01/06 03:20:06;;;;;;;;;0.00;0.00;;;;;12.84;69.33;101407.91;6170571;22;45701;-77
2023/01/06 03:22:37;;;;;;;;;0.00;0.00;;;;;12.88;68.99;101412.00;6243767;22;47475;-75
2023/01/06 03:25:04;;;;;;;;;0.00;0.00;;;;;12.82;69.06;101400.13;6271504;22;46171;-73
2023/01/06 03:31:22;;;;;;;;;0.00;0.00;;;;;12.80;69.31;101417.78;6271974;22;45537;-74
2023/01/06 03:34:16;;;;;;;;;0.50;0.25;;;;;12.77;69.35;101422.41;6271414;22;46415;-72
2023/01/06 03:37:06;;;;;;;;;0.50;0.00;;;;;12.77;69.54;101412.75;6272414;22;45708;-75
2023/01/06 03:39:42;;;;;;;;;0.50;0.00;;;;;12.78;69.33;101405.69;6272765;22;45486;-76
2023/01/06 03:43:10;;;;;;;;;0.00;0.00;;;;;12.79;69.14;101407.38;6274178;22;45550;-84
2023/01/06 03:45:43;;;;;;;;;0.00;0.00;;;;;12.65;69.32;101395.16;6180720;23;45617;-80
2023/01/06 03:48:27;;;;;;;;;1.00;1.00;;;;;12.79;69.31;101412.63;6178966;23;47259;-85
2023/01/06 03:51:04;;;;;;;;;0.00;0.00;;;;;12.78;69.40;101405.69;6177004;23;45531;-75
2023/01/06 03:54:07;;;;;;;;;0.00;0.00;;;;;12.78;69.90;101406.53;6205238;22;45680;-78
2023/01/06 04:00:16;;;;;;;;;0.00;0.00;;;;;12.65;69.83;101382.00;6209131;22;45612;-75
2023/01/06 04:02:41;;;;;;;;;0.00;0.00;;;;;12.75;69.97;101374.31;6183009;22;45690;-80
2023/01/06 04:05:11;;;;;;;;;0.00;0.00;;;;;12.73;70.27;101366.56;6210072;22;45809;-78
2023/01/06 04:07:38;;;;;;;;;1.00;0.00;;;;;12.74;70.38;101377.94;6211159;22;47324;-80
2023/01/06 04:10:05;;;;;;;;;0.00;0.00;;;;;12.73;70.08;101384.13;6212235;22;46114;-80
2023/01/06 04:15:55;;;;;;;;;0.00;0.00;;;;;12.69;70.09;101383.47;6208747;22;45801;-78
2023/01/06 04:18:20;;;;;;;;;0.00;0.00;;;;;12.63;70.14;101368.13;6210554;22;47714;-77
2023/01/06 04:20:45;;;;;;;;;0.00;0.00;;;;;12.54;70.29;101361.69;6307762;22;46204;-75
2023/01/06 04:23:11;;;;;;;;;0.25;0.00;;;;;12.66;70.48;101369.69;6307314;22;45570;-73
2023/01/06 04:25:36;;;;;;;;;0.00;0.00;;;;;12.66;70.18;101382.84;6306885;22;45537;-72
2023/01/06 04:31:23;;;;;;;;;0.00;0.00;;;;;12.65;70.16;101384.63;6305654;22;45745;-77
2023/01/06 04:34:11;;;;;;;;;0.00;0.00;;;;;12.60;70.59;101368.31;6304045;22;45758;-79
2023/01/06 04:36:37;;;;;;;;;0.00;0.00;;;;;12.63;70.20;101376.84;6163210;22;46001;-73
2023/01/06 04:39:02;;;;;;;;;0.00;0.00;;;;;12.63;70.38;101380.44;6274755;22;47566;-75
2023/01/06 04:41:31;;;;;;;;;1.00;0.00;;;;;12.53;70.75;101357.38;6302044;22;46112;-74
2023/01/06 04:43:56;;;;;;;;;0.00;0.00;;;;;12.57;70.58;101351.00;6303081;22;45696;-73
2023/01/06 04:46:21;;;;;;;;;0.00;0.00;;;;;12.60;70.36;101353.41;6303135;22;45887;-74
2023/01/06 04:48:47;;;;;;;;;0.00;0.00;;;;;12.61;70.33;101368.22;6302391;22;46332;-75
2023/01/06 04:51:12;;;;;;;;;0.00;0.00;;;;;12.63;70.72;101355.81;6274880;22;46021;-73
2023/01/06 04:53:40;;;;;;;;;0.00;0.00;;;;;12.61;70.54;101359.50;6302311;22;45675;-75
2023/01/06 04:56:08;;;;;;;;;0.00;0.00;;;;;12.63;70.52;101359.41;6302206;22;45608;-74
2023/01/06 05:01:55;;;;;;;;;0.00;0.00;;;;;12.61;70.77;101347.19;6302586;22;46042;-75
2023/01/06 05:04:20;;;;;;;;;0.00;0.00;;;;;12.63;70.93;101349.72;6301931;22;46870;-73
2023/01/06 05:06:46;;;;;;;;;0.00;0.00;;;;;12.61;70.78;101341.94;6303068;22;45447;-73
2023/01/06 05:09:11;;;;;;;;;0.00;0.00;;;;;12.54;71.00;101330.16;6303019;22;46763;-75
2023/01/06 05:11:36;;;;;;;;;0.50;0.00;;;;;12.63;70.91;101343.63;6302906;22;45708;-73
2023/01/06 05:17:23;;;;;;;;;0.00;0.00;;;;;12.58;70.91;101325.53;6302928;22;45535;-74
2023/01/06 05:19:49;;;;;;;;;0.00;0.00;;;;;12.58;71.19;101326.38;6302143;22;46235;-77
2023/01/06 05:22:17;;;;;;;;;0.00;0.00;;;;;12.50;71.18;101315.53;6302802;22;45888;-81
2023/01/06 05:24:42;;;;;;;;;0.00;0.00;;;;;12.52;71.15;101332.03;6301665;22;45748;-74
2023/01/06 05:27:08;;;;;;;;;0.00;0.00;;;;;12.59;71.14;101349.06;6302557;22;45541;-75
2023/01/06 05:29:40;;;;;;;;;0.00;0.00;;;;;12.53;71.26;101344.22;6301163;22;46540;-77
2023/01/06 05:32:21;;;;;;;;;;;;;;;;;;;;;
2023/01/06 05:35:01;;;;;;;;;0.00;0.00;;;;;12.41;71.17;101331.09;6277291;22;74214;-78
2023/01/06 05:37:36;;;;;;;;;0.00;0.00;;;;;12.62;71.31;101366.44;6304332;22;45653;-79
2023/01/06 05:40:09;;;;;;;;;0.00;0.00;;;;;12.59;71.17;101377.16;6303226;22;47549;-79
2023/01/06 05:42:35;;;;;;;;;0.00;0.00;;;;;12.61;71.24;101376.13;6274778;22;46074;-79
2023/01/06 05:45:00;;;;;;;;;0.00;0.00;;;;;12.63;71.22;101372.56;6305027;22;45578;-76
2023/01/06 05:47:25;;;;;;;;;0.00;0.00;;;;;12.63;71.28;101376.03;6275685;22;45871;-79
2023/01/06 05:49:51;;;;;;;;;0.50;0.00;;;;;12.65;71.37;101384.63;6302740;22;45524;-74
2023/01/06 05:52:16;;;;;;;;;0.00;0.00;;;;;12.63;71.29;101377.81;6301229;22;45578;-76
2023/01/06 05:54:41;;;;;;;;;0.00;0.00;;;;;12.66;71.31;101386.31;6302523;22;45558;-74
2023/01/06 05:57:08;;;;;;;;;0.00;0.00;;;;;12.47;71.24;101355.16;6302385;22;45600;-75
2023/01/06 06:03:28;;;;;;;;;0.50;0.00;;;;;12.66;70.96;101388.94;6303182;22;45698;-78
2023/01/06 06:05:54;;;;;;;;;0.25;0.00;;;;;12.68;71.20;101386.22;6207890;22;45567;-75
2023/01/06 06:08:25;;;;;;;;;0.00;0.00;;;;;12.69;71.40;101391.34;6209475;22;45577;-80
2023/01/06 06:10:50;;;;;;;;;0.00;0.00;;;;;12.56;71.13;101358.97;6181244;22;47596;-73
2023/01/06 06:13:15;;;;;;;;;0.00;0.00;;;;;12.74;70.97;101388.44;6206850;22;45463;-82
2023/01/06 06:15:41;;;;;;;;;0.00;0.00;;;;;12.70;70.90;101381.69;6206702;22;45816;-75
2023/01/06 06:18:06;;;;;;;;;0.00;0.00;;;;;12.78;71.06;101385.50;6206663;22;45707;-73
2023/01/06 06:20:31;;;;;;;;;0.00;0.00;;;;;12.75;70.75;101380.44;6205896;22;46542;-74
2023/01/06 06:22:57;;;;;;;;;0.00;0.00;;;;;12.76;70.37;101370.75;6204791;22;46206;-73
2023/01/06 06:25:22;;;;;;;;;0.00;0.00;;;;;12.87;70.62;101382.22;6206732;22;45594;-73
2023/01/06 06:27:47;;;;;;;;;0.00;0.00;;;;;12.90;70.69;101391.72;6207488;22;45870;-73
2023/01/06 06:33:37;;;;;;;;;0.00;0.00;;;;;12.93;70.53;101383.59;6208011;22;45641;-76
2023/01/06 06:36:04;;;;;;;;;1.00;0.00;;;;;12.92;70.44;101382.75;6206432;22;45859;-75
2023/01/06 06:38:30;;;;;;;;;1.00;0.00;;;;;12.97;70.88;101393.81;6207672;22;45664;-76
2023/01/06 06:40:55;;;;;;;;;1.00;0.00;;;;;12.98;70.85;101400.75;6232422;22;45978;-77
2023/01/06 06:43:20;;;;;;;;;0.75;0.00;;;;;12.99;70.36;101401.59;6302957;22;45478;-72
2023/01/06 06:45:47;;;;;;;;;0.00;0.00;;;;;12.88;70.40;101380.44;6274919;22;45756;-76
2023/01/06 06:48:13;;;;;;;;;0.00;0.00;;;;;12.93;70.45;101394.97;6303762;22;45657;-73
2023/01/06 06:50:38;;;;;;;;;0.00;0.00;;;;;13.02;70.16;101404.00;6303262;22;45477;-75
2023/01/06 06:53:05;;;;;;;;;0.00;0.00;;;;;13.02;70.34;101393.47;6302291;22;46606;-72
2023/01/06 06:55:31;;;;;;;;;0.00;0.00;;;;;13.02;70.68;101396.97;6303464;22;45505;-73
2023/01/06 06:57:57;;;;;;;;;0.00;0.00;;;;;12.98;70.36;101384.13;6303205;22;45644;-75
2023/01/06 07:03:44;;;;;;;;;0.00;0.00;;;;;12.95;70.67;101389.63;6302415;22;45805;-74
2023/01/06 07:06:27;;;;;;;;;0.25;0.25;;;;;12.99;70.62;101397.19;6302116;22;45674;-76
2023/01/06 07:08:55;;;;;;;;;1.00;0.00;;;;;12.95;70.36;101393.09;6302861;22;45593;-76
2023/01/06 07:11:21;;;;;;;;;0.00;0.00;;;;;12.98;70.70;101408.66;6303085;22;45594;-74
2023/01/06 07:13:46;;;;;;;;;1.00;0.00;;;;;12.92;70.59;101389.81;6302379;22;45998;-72
2023/01/06 07:16:12;;;;;;;;;1.00;0.00;;;;;13.00;70.83;101395.41;6302366;22;45614;-75
2023/01/06 07:18:37;;;;;;;;;1.00;0.00;;;;;13.00;70.40;101405.91;6302564;22;45466;-72
2023/01/06 07:21:03;;;;;;;;;0.25;0.00;;;;;13.01;70.81;101418.09;6303652;22;46596;-73
2023/01/06 07:23:29;;;;;;;;;0.00;0.00;;;;;13.03;70.47;101411.81;6302821;22;45909;-76
2023/01/06 07:25:57;;;;;;;;;0.00;0.00;;;;;13.04;70.31;101413.50;6302076;22;45486;-74
2023/01/06 07:28:24;;;;;;;;;2.00;1.00;;;;;13.05;70.75;101414.34;6303751;22;45586;-73
2023/01/06 07:34:12;;;;;;;;;0.00;0.00;;;;;13.07;70.72;101417.69;6302824;22;45803;-72
2023/01/06 07:36:37;;;;;;;;;0.00;0.00;;;;;13.04;70.52;101404.75;6302802;22;45514;-75
2023/01/06 07:39:03;;;;;;;;;0.75;0.00;;;;;13.07;70.66;101408.94;6274866;22;45799;-72
2023/01/06 07:41:30;;;;;;;;;0.50;0.50;;;;;13.07;70.88;101401.91;6303053;22;45599;-75
2023/01/06 07:43:55;;;;;;;;;0.00;0.00;;;;;13.06;70.67;101396.78;6302907;22;45817;-74
2023/01/06 07:46:21;;;;;;;;;0.00;0.00;;;;;13.08;70.67;101403.59;6275211;22;45979;-74
2023/01/06 07:48:46;;;;;;;;;1.25;0.50;;;;;13.04;70.46;101402.97;6303235;22;45475;-74
2023/01/06 07:51:11;;;;;;;;;1.00;0.50;;;;;12.96;70.75;101386.00;6274337;22;47529;-72
2023/01/06 07:53:37;;;;;;;;;0.00;0.00;;;;;12.96;70.75;101383.38;6302154;22;45808;-73
2023/01/06 07:56:02;;;;;;;;;0.75;0.75;;;;;13.08;70.63;101410.63;6301933;22;45558;-74
2023/01/06 07:58:28;;;;;;;;;0.75;0.75;;;;;13.01;70.81;101389.16;6303076;22;45377;-75
2023/01/06 08:04:15;;;;;;;;;1.00;1.00;;;;;13.06;70.54;101409.91;6302483;22;45941;-76
2023/01/06 08:06:40;;;;;;;;;4.00;2.00;;;;;13.08;70.57;101410.63;6302019;22;45897;-76
2023/01/06 08:09:05;;;;;;;;;2.00;1.75;;;;;13.07;70.75;101415.06;6303195;22;45559;-76
2023/01/06 08:11:31;;;;;;;;;2.00;1.50;;;;;13.11;70.76;101411.28;6301817;22;45663;-75
2023/01/06 08:13:56;;;;;;;;;1.00;1.00;;;;;13.12;70.58;101414.81;6302285;22;46828;-76
2023/01/06 08:19:43;;;;;;;;;1.75;1.00;;;;;13.15;70.53;101409.31;6302749;22;45658;-76
2023/01/06 08:22:09;;;;;;;;;3.50;3.00;;;;;13.16;70.80;101417.09;6302558;22;46173;-77
2023/01/06 08:24:34;;;;;;;;;1.50;1.00;;;;;13.17;70.48;101424.03;6302578;22;45606;-75
2023/01/06 08:27:00;;;;;;;;;5.00;4.00;;;;;13.17;70.80;101426.66;6301890;22;45581;-76
2023/01/06 08:29:25;;;;;;;;;2.75;2.75;;;;;13.20;70.33;101426.47;6302147;22;45541;-72
2023/01/06 08:31:51;;;;;;;;;2.00;2.00;;;;;13.20;70.91;101415.09;6301826;22;47008;-75
2023/01/06 08:34:17;;;;;;;;;1.00;1.00;;;;;13.21;70.44;101422.06;6302667;22;45938;-75
2023/01/06 08:36:43;;;;;;;;;2.00;2.00;;;;;13.22;70.51;101426.38;6301702;22;45541;-76
2023/01/06 08:39:10;;;;;;;;;1.00;1.00;;;;;13.21;70.46;101425.53;6274559;22;45888;-74
2023/01/06 08:41:35;;;;;;;;;1.50;1.50;;;;;13.23;70.59;101426.25;6302546;22;46408;-76
2023/01/06 08:44:01;;;;;;;;;2.00;1.00;;;;;13.26;70.63;101435.72;6302543;22;45452;-74
2023/01/06 08:49:47;;;;;;;;;1.00;1.00;;;;;13.29;70.32;101436.34;6302038;22;45651;-75
2023/01/06 08:52:13;;;;;;;;;1.00;1.00;;;;;13.26;70.62;101428.69;6300242;22;46631;-75
2023/01/06 08:54:38;;;;;;;;;1.00;1.00;;;;;13.31;70.14;101439.72;6301734;22;45647;-76
2023/01/06 08:57:04;;;;;;;;;1.25;1.00;;;;;13.33;70.34;101434.38;6302609;22;45502;-74
2023/01/06 08:59:29;;;;;;;;;2.00;1.00;;;;;13.33;70.62;101435.19;6302857;22;45450;-76
2023/01/06 09:05:16;;;;;;;;;2.75;1.50;;;;;13.36;70.25;101440.25;6303395;22;45556;-74
2023/01/06 09:07:41;;;;;;;;;1.00;1.00;;;;;13.36;70.62;101439.41;6302452;22;45494;-74
2023/01/06 09:10:07;;;;;;;;;1.00;1.00;;;;;13.34;70.33;101431.59;6303367;22;45576;-76
2023/01/06 09:12:33;;;;;;;;;1.00;1.00;;;;;13.32;70.78;101435.31;6302396;22;46211;-75
2023/01/06 09:14:58;;;;;;;;;1.00;1.00;;;;;13.35;70.89;101435.94;6301480;22;45986;-75
2023/01/06 09:17:24;;;;;;;;;2.00;1.00;;;;;13.34;70.53;101431.59;6302705;22;45688;-75
2023/01/06 09:19:49;;;;;;;;;1.00;1.00;;;;;13.30;71.03;101424.03;6301886;22;45762;-73
2023/01/06 09:22:14;;;;;;;;;1.00;1.00;;;;;13.35;70.55;101428.03;6274053;22;47480;-74
2023/01/06 09:24:40;;;;;;;;;1.00;1.00;;;;;13.32;70.61;101428.25;6302322;22;45502;-73
2023/01/06 09:27:05;;;;;;;;;1.50;1.00;;;;;13.35;70.64;101435.94;6301845;22;45565;-74
2023/01/06 09:29:31;;;;;;;;;1.50;1.00;;;;;13.43;71.06;101440.69;6301975;22;45422;-76
2023/01/06 09:35:18;;;;;;;;;2.25;2.00;;;;;13.44;71.10;101448.44;6301735;22;45555;-75
2023/01/06 09:37:43;;;;;;;;;2.00;2.00;;;;;13.43;70.56;101441.53;6302273;22;45528;-74
2023/01/06 09:40:16;;;;;;;;;1.00;1.00;;;;;13.48;70.89;101446.47;6274250;22;45737;-74
2023/01/06 09:42:53;;;;;;;;;2.75;1.50;;;;;13.50;70.90;101452.44;6302158;22;45607;-75
2023/01/06 09:45:27;;;;;;;;;1.50;1.00;;;;;13.52;70.22;101453.19;6301381;22;46350;-74
2023/01/06 09:47:57;;;;;;;;;1.75;1.25;;;;;13.50;70.72;101447.16;6301670;22;45666;-76
2023/01/06 09:50:32;;;;;;;;;2.00;2.00;;;;;13.55;70.83;101452.97;6301719;22;45893;-75
2023/01/06 09:53:16;;;;;;;;;2.00;2.00;;;;;13.58;70.49;101444.00;6301631;22;46734;-74
2023/01/06 09:55:47;;;;;;;;;2.75;2.75;;;;;13.61;70.30;101455.16;6301407;22;46091;-75
2023/01/06 09:58:16;;;;;;;;;2.00;1.00;;;;;13.59;70.22;101443.91;6302320;22;45498;-75
2023/01/06 10:00:48;;;;;;;;;1.25;1.00;;;;;13.65;70.63;101454.03;6300751;22;45896;-75
2023/01/06 10:03:16;;;;;;;;;2.75;2.00;;;;;13.62;70.03;101450.75;6301182;22;47404;-75
2023/01/06 10:06:09;;;;;;;;;1.75;1.75;;;;;13.68;70.45;101451.16;6301386;22;46146;-74
2023/01/06 10:08:37;;;;;;;;;1.50;1.25;;;;;13.70;70.01;101453.69;6301741;22;45715;-76
2023/01/06 10:11:37;;;;;;;;;2.25;2.25;;;;;13.73;70.33;101467.47;6302564;22;45536;-74
2023/01/06 10:14:43;;;;;;;;;1.75;1.75;;;;;13.76;69.89;101469.91;6302631;22;46460;-77
2023/01/06 10:17:25;;;;;;;;;2.00;1.25;;;;;13.75;70.47;101457.69;6285167;22;46010;-76
2023/01/06 10:19:59;;;;;;;;;2.00;2.00;;;;;13.78;70.17;101465.34;6302509;22;45757;-77
2023/01/06 10:22:33;;;;;;;;;1.00;1.00;;;;;13.79;70.17;101469.69;6302581;22;45610;-76
2023/01/06 10:25:04;;;;;;;;;1.25;1.00;;;;;13.79;70.24;101477.59;6302399;22;45645;-77
2023/01/06 10:27:38;;;;;;;;;3.00;3.00;;;;;13.79;70.07;101474.94;6273621;22;46077;-77
2023/01/06 10:30:16;;;;;;;;;1.00;1.00;;;;;13.78;69.85;101472.41;6302095;22;45650;-76
2023/01/06 10:32:44;;;;;;;;;2.00;2.00;;;;;13.82;69.98;101473.88;6302187;22;45591;-76
2023/01/06 10:35:13;;;;;;;;;2.00;1.25;;;;;13.76;70.04;101469.91;6301144;22;47528;-76
2023/01/06 10:37:43;;;;;;;;;3.00;2.00;;;;;13.82;69.79;101468.59;6302253;22;46110;-73
2023/01/06 10:40:25;;;;;;;;;1.75;1.00;;;;;13.82;70.06;101468.59;6301243;22;45708;-77
2023/01/06 10:43:05;;;;;;;;;3.00;3.00;;;;;13.80;70.17;101466.09;6301173;22;45447;-75
2023/01/06 10:48:52;;;;;;;;;2.00;2.00;;;;;13.82;70.11;101465.97;6302758;22;45995;-76
2023/01/06 10:51:27;;;;;;;;;3.25;2.25;;;;;13.86;70.06;101456.94;6302404;22;46131;-76
2023/01/06 10:53:55;;;;;;;;;1.75;1.00;;;;;13.88;69.95;101455.84;6302677;22;45610;-76
2023/01/06 10:56:21;;;;;;;;;3.75;3.00;;;;;13.88;70.08;101442.69;6301592;22;45594;-76
2023/01/06 10:58:57;;;;;;;;;3.00;2.00;;;;;13.95;69.98;101447.50;6301767;22;45645;-77
2023/01/06 11:04:51;;;;;;;;;2.00;2.00;;;;;14.01;69.99;101434.75;6301358;22;45578;-74
2023/01/06 11:07:16;;;;;;;;;3.25;2.00;;;;;14.02;69.41;101436.44;6301599;22;45620;-76
2023/01/06 11:09:43;;;;;;;;;3.00;2.00;;;;;14.03;69.40;101435.50;6300745;22;46085;-75
2023/01/06 11:12:13;;;;;;;;;4.25;2.50;;;;;14.10;69.65;101433.22;6301852;22;45536;-72
2023/01/06 11:14:40;;;;;;;;;2.00;2.00;;;;;14.07;69.51;101423.75;6302978;22;45369;-76
2023/01/06 11:20:31;;;;;;;;;3.00;2.00;;;;;14.15;69.75;101429.31;6302642;22;45585;-77
2023/01/06 11:23:21;;;;;;;;;4.25;4.00;;;;;14.18;69.26;101428.25;6302303;22;45412;-74
2023/01/06 11:26:01;;;;;;;;;4.25;3.25;;;;;14.19;69.59;101414.13;6302090;22;45693;-75
2023/01/06 11:28:26;;;;;;;;;2.00;2.00;;;;;14.21;69.33;101418.31;6302262;22;46435;-75
2023/01/06 11:30:56;;;;;;;;;3.00;2.75;;;;;14.20;69.46;101410.50;6301003;22;46101;-76
2023/01/06 11:36:46;;;;;;;;;3.25;3.25;;;;;14.26;69.37;101410.91;6302703;22;45660;-75
2023/01/06 11:39:33;;;;;;;;;3.00;3.00;;;;;14.26;69.42;101410.91;6302806;22;45473;-75
2023/01/06 11:42:11;;;;;;;;;3.00;2.00;;;;;14.23;69.11;101405.03;6301805;22;46484;-77
2023/01/06 11:44:42;;;;;;;;;4.00;3.25;;;;;14.25;69.04;101409.22;6302080;22;45714;-76
2023/01/06 11:47:14;;;;;;;;;3.00;3.00;;;;;14.26;68.74;101400.38;6303021;22;45695;-75
2023/01/06 11:49:45;;;;;;;;;4.00;4.00;;;;;14.31;69.04;101392.13;6302291;22;46532;-77
2023/01/06 11:53:10;;;;;;;;;3.00;3.00;;;;;14.33;69.19;101377.03;6301508;22;46433;-77
2023/01/06 11:55:38;;;;;;;;;2.00;2.00;;;;;14.34;69.23;101356.78;6176379;23;45703;-77
2023/01/06 11:58:27;;;;;;;;;3.00;2.00;;;;;14.37;68.57;101338.13;6177424;23;45643;-75
2023/01/06 12:01:05;;;;;;;;;3.00;3.00;;;;;14.03;68.30;101293.22;6177047;23;46787;-75
2023/01/06 12:03:42;;;;;;;;;3.00;2.00;;;;;14.05;68.50;101291.28;6176805;23;45880;-77
2023/01/06 12:06:29;;;;;;;;;3.00;2.75;;;;;14.60;68.45;101375.00;6177339;23;45684;-75
2023/01/06 12:09:04;;;;;;;;;3.00;2.75;;;;;14.61;68.20;101373.22;6177078;23;45524;-77
2023/01/06 12:11:54;;;;;;;;;3.00;2.00;;;;;14.61;68.26;101379.31;6176247;23;46872;-78
2023/01/06 12:14:22;;;;;;;;;2.75;2.75;;;;;14.45;68.08;101341.88;6151129;23;46624;-77
2023/01/06 12:20:29;;;;;;;;;2.25;2.00;;;;;14.56;68.02;101360.38;6177255;23;45620;-73
2023/01/06 12:23:06;;;;;;;;;1.00;1.00;;;;;14.56;67.66;101351.63;6220831;22;45823;-73
2023/01/06 12:25:42;;;;;;;;;1.00;1.00;;;;;14.52;68.08;101335.16;6302064;22;45467;-77
2023/01/06 12:28:32;;;;;;;;;2.00;2.00;;;;;14.54;67.68;101335.06;6302738;22;45716;-75
2023/01/06 12:31:33;;;;;;;;;4.00;3.75;;;;;14.58;67.91;101324.16;6301864;22;45729;-75
2023/01/06 12:37:39;;;;;;;;;2.75;2.75;;;;;14.59;67.71;101335.56;6302948;22;45915;-76
2023/01/06 12:40:41;;;;;;;;;2.00;2.00;;;;;14.28;67.81;101257.94;6277027;22;45491;-74
2023/01/06 12:43:15;;;;;;;;;2.00;2.00;;;;;14.61;67.46;101323.09;6275121;22;45555;-77
2023/01/06 12:46:31;;;;;;;;;3.75;3.00;;;;;14.61;67.56;101323.09;6302008;22;46292;-76
2023/01/06 12:49:04;;;;;;;;;3.50;3.50;;;;;14.14;67.57;101237.06;6180938;22;47140;-77
2023/01/06 12:51:39;;;;;;;;;2.00;2.00;;;;;14.41;67.28;101274.53;6206180;22;45801;-75
2023/01/06 12:54:22;;;;;;;;;3.00;2.75;;;;;14.63;67.19;101308.81;6207076;22;45619;-76
2023/01/06 12:57:25;;;;;;;;;1.00;1.00;;;;;14.65;67.46;101306.91;6206351;22;48242;-76
2023/01/06 13:00:32;;;;;;;;;3.00;2.50;;;;;14.66;67.18;101305.13;6206464;22;47040;-75
2023/01/06 13:06:31;;;;;;;;;2.00;2.00;;;;;14.67;67.30;101299.75;6206998;22;45512;-75
2023/01/06 13:09:19;;;;;;;;;5.00;3.00;;;;;14.65;66.84;101306.06;6206389;22;46427;-76
2023/01/06 13:11:49;;;;;;;;;5.00;2.75;;;;;14.64;67.27;101299.97;6206356;22;47008;-75
2023/01/06 13:14:35;;;;;;;;;3.00;3.00;;;;;14.62;67.31;101298.41;6236556;22;45505;-75
2023/01/06 13:23:44;;;;;;;;;2.75;2.75;;;;;14.68;67.04;101297.94;6270742;22;46007;-76
2023/01/06 13:26:33;;;;;;;;;2.25;2.25;;;;;14.69;66.86;101286.41;6268710;22;45713;-77
2023/01/06 13:29:18;;;;;;;;;3.25;3.25;;;;;14.71;67.23;101295.06;6270605;22;45755;-77
2023/01/06 13:31:52;;;;;;;;;6.00;4.00;;;;;14.71;66.76;101295.06;6270490;22;46243;-77
2023/01/06 13:34:39;;;;;;;;;3.00;3.00;;;;;14.74;66.79;101305.34;6270785;22;46146;-75
2023/01/06 13:37:42;;;;;;;;;0.00;0.00;;;;;14.72;66.96;101309.94;6271282;22;45556;-75
2023/01/06 13:40:28;;;;;;;;;3.00;3.00;;;;;14.72;67.17;101296.75;6271638;22;45513;-76
2023/01/06 13:42:59;;;;;;;;;3.00;2.00;;;;;14.79;66.93;101299.75;6270494;22;46779;-74